createdAt,value
2023-01-18T00:04:50.417Z,79.90
2023-01-18T00:09:53.339Z,79.83
2023-01-18T00:14:55.583Z,79.83
2023-01-18T00:19:57.906Z,79.63
2023-01-18T00:25:00.136Z,80.13
2023-01-18T00:30:04.158Z,79.97
2023-01-18T00:35:07.672Z,79.95
2023-01-18T00:40:10.774Z,80.07
2023-01-18T00:45:13.330Z,80.20
2023-01-18T00:50:15.864Z,80.14
2023-01-18T00:55:18.173Z,80.31
2023-01-18T01:00:20.710Z,80.56
2023-01-18T01:05:43.991Z,80.52
2023-01-18T01:10:50.753Z,80.57
2023-01-18T01:16:11.544Z,80.39
2023-01-18T01:21:32.310Z,80.37
2023-01-18T01:26:34.625Z,80.43
2023-01-18T01:31:36.928Z,80.49
2023-01-18T01:36:39.260Z,80.66
2023-01-18T01:41:41.626Z,80.55
2023-01-18T01:46:59.023Z,81.02
2023-01-18T01:52:08.768Z,80.80
2023-01-18T01:57:15.083Z,80.66
2023-01-18T02:02:17.423Z,80.87
2023-01-18T02:07:23.991Z,80.59
2023-01-18T02:12:26.891Z,80.78
2023-01-18T02:17:38.836Z,80.91
2023-01-18T02:23:02.737Z,80.69
2023-01-18T02:28:34.752Z,80.96
2023-01-18T02:33:52.588Z,80.95
2023-01-18T02:38:56.708Z,80.80
2023-01-18T02:44:17.235Z,80.62
2023-01-18T02:49:23.288Z,81.12
2023-01-18T02:54:25.563Z,80.93
2023-01-18T02:59:39.106Z,81.01
2023-01-18T03:04:54.471Z,80.95
2023-01-18T03:09:57.556Z,80.74
2023-01-18T03:15:23.589Z,80.89
2023-01-18T03:20:33.615Z,81.00
2023-01-18T03:25:56.626Z,80.89
2023-01-18T03:31:19.334Z,80.51
2023-01-18T03:36:29.199Z,80.78
2023-01-18T03:41:31.808Z,80.67
2023-01-18T03:46:34.546Z,80.38
2023-01-18T03:52:09.197Z,80.76
2023-01-18T03:57:39.436Z,80.95
2023-01-18T04:02:45.023Z,80.45
2023-01-18T04:07:47.597Z,80.52
2023-01-18T04:12:49.986Z,80.69
2023-01-18T04:17:55.936Z,80.48
2023-01-18T04:22:58.515Z,80.66
2023-01-18T04:28:01.055Z,80.60
2023-01-18T04:33:03.360Z,80.49
2023-01-18T04:38:05.639Z,80.52
2023-01-18T04:43:07.907Z,80.43
2023-01-18T04:48:10.210Z,80.41
2023-01-18T04:53:12.530Z,80.43
2023-01-18T04:58:17.808Z,80.52
2023-01-18T05:03:20.049Z,80.43
2023-01-18T05:08:22.676Z,80.46
2023-01-18T05:13:24.926Z,80.51
2023-01-18T05:18:27.387Z,80.50
2023-01-18T05:23:29.768Z,80.41
2023-01-18T05:28:32.070Z,80.32
2023-01-18T05:33:35.881Z,80.24
2023-01-18T05:38:38.173Z,80.08
2023-01-18T05:43:40.843Z,80.09
2023-01-18T05:48:43.112Z,80.11
2023-01-18T05:53:45.532Z,80.41
2023-01-18T05:58:47.838Z,80.05
2023-01-18T06:03:50.102Z,80.32
2023-01-18T06:08:52.418Z,80.27
2023-01-18T06:13:56.792Z,80.48
2023-01-18T06:18:59.112Z,80.11
2023-01-18T06:24:01.340Z,80.31
2023-01-18T06:29:03.723Z,80.13
2023-01-18T06:34:09.627Z,80.26
2023-01-18T06:39:12.128Z,80.39
2023-01-18T06:44:14.373Z,80.18
2023-01-18T06:49:17.234Z,80.54
2023-01-18T06:54:19.458Z,80.37
2023-01-18T06:59:21.648Z,80.48
2023-01-18T07:04:24.026Z,80.19
2023-01-18T07:09:26.378Z,80.32
2023-01-18T07:14:29.139Z,80.61
2023-01-18T07:19:31.411Z,80.62
2023-01-18T07:24:33.765Z,80.74
2023-01-18T07:29:36.549Z,80.56
2023-01-18T07:34:38.789Z,80.57
2023-01-18T07:39:41.067Z,80.56
2023-01-18T07:44:43.294Z,80.74
2023-01-18T07:49:45.548Z,80.75
2023-01-18T07:54:47.853Z,80.56
2023-01-18T07:59:50.100Z,80.83
2023-01-18T08:04:52.430Z,80.50
2023-01-18T08:09:54.757Z,80.43
2023-01-18T08:14:57.023Z,80.49
2023-01-18T08:19:59.419Z,80.39
2023-01-18T08:25:02.000Z,80.21
2023-01-18T08:30:07.468Z,80.28
2023-01-18T08:35:10.616Z,80.42
2023-01-18T08:40:13.133Z,80.27
2023-01-18T08:45:16.040Z,80.22
2023-01-18T08:50:18.404Z,80.06
2023-01-18T08:55:21.888Z,80.26
2023-01-18T09:00:26.992Z,80.14
2023-01-18T09:05:29.455Z,80.14
2023-01-18T09:10:33.005Z,79.96
2023-01-18T09:15:35.268Z,80.06
2023-01-18T09:20:37.610Z,80.08
2023-01-18T09:25:41.247Z,80.04
2023-01-18T09:30:43.641Z,79.97
2023-01-18T09:35:45.874Z,80.33
2023-01-18T09:40:48.209Z,80.12
2023-01-18T09:45:50.409Z,80.07
2023-01-18T09:50:53.636Z,80.09
2023-01-18T09:56:29.243Z,80.26
2023-01-18T10:01:38.840Z,80.22
2023-01-18T10:06:50.547Z,80.16
2023-01-18T10:12:07.436Z,80.17
2023-01-18T10:17:14.387Z,80.25
2023-01-18T10:22:29.325Z,80.34
2023-01-18T10:28:13.155Z,80.24
2023-01-18T10:33:22.314Z,80.03
2023-01-18T10:38:27.465Z,80.15
2023-01-18T10:43:32.038Z,80.12
2023-01-18T10:48:35.019Z,80.23
2023-01-18T10:53:38.902Z,80.22
2023-01-18T10:58:47.093Z,80.27
2023-01-18T11:03:52.185Z,80.43
2023-01-18T11:08:54.503Z,80.09
2023-01-18T11:13:56.820Z,80.36
2023-01-18T11:19:04.539Z,80.32
2023-01-18T11:24:18.517Z,80.53
2023-01-18T11:29:21.642Z,80.32
2023-01-18T11:34:38.027Z,80.64
2023-01-18T11:39:40.317Z,80.53
2023-01-18T11:44:48.610Z,80.85
2023-01-18T11:50:05.487Z,80.68
2023-01-18T11:55:25.746Z,80.79
2023-01-18T12:00:31.929Z,80.92
2023-01-18T12:05:55.138Z,81.25
2023-01-18T12:11:06.369Z,81.14
2023-01-18T12:16:08.597Z,80.97
2023-01-18T12:21:19.408Z,81.06
2023-01-18T12:26:54.863Z,81.46
2023-01-18T12:32:21.836Z,81.36
2023-01-18T12:37:29.955Z,81.37
2023-01-18T12:42:50.742Z,81.73
2023-01-18T12:48:24.870Z,81.62
2023-01-18T12:53:41.443Z,81.56
2023-01-18T12:58:44.558Z,81.39
2023-01-18T13:03:48.010Z,81.39
2023-01-18T13:09:00.296Z,81.34
2023-01-18T13:14:11.966Z,81.40
2023-01-18T13:19:21.104Z,81.15
2023-01-18T13:24:30.202Z,81.13
2023-01-18T13:29:33.347Z,80.88
2023-01-18T13:34:47.751Z,80.72
2023-01-18T13:39:51.552Z,80.80
2023-01-18T13:45:18.980Z,80.40
2023-01-18T13:50:39.585Z,80.41
2023-01-18T13:55:46.468Z,80.24
2023-01-18T14:00:49.348Z,79.89
2023-01-18T14:05:52.857Z,79.79
2023-01-18T14:11:03.499Z,79.72
2023-01-18T14:16:05.945Z,79.71
2023-01-18T14:21:19.795Z,79.39
2023-01-18T14:26:22.704Z,79.22
2023-01-18T14:31:34.424Z,79.22
2023-01-18T14:36:36.798Z,79.09
2023-01-18T14:41:44.852Z,78.96
2023-01-18T14:46:56.350Z,78.66
2023-01-18T14:51:59.402Z,78.86
2023-01-18T14:57:03.586Z,78.64
2023-01-18T15:02:16.853Z,78.49
2023-01-18T15:07:34.624Z,78.08
2023-01-18T15:12:42.525Z,78.35
2023-01-18T15:17:45.692Z,78.09
2023-01-18T15:22:50.830Z,78.03
2023-01-18T15:27:58.766Z,77.94
2023-01-18T15:33:13.136Z,77.49
2023-01-18T15:38:20.738Z,77.47
2023-01-18T15:43:28.759Z,77.55
2023-01-18T15:48:36.465Z,77.33
2023-01-18T15:53:46.062Z,77.22
2023-01-18T15:58:50.317Z,77.18
2023-01-18T16:03:54.668Z,77.15
2023-01-18T16:08:57.777Z,77.00
2023-01-18T16:14:07.998Z,76.78
2023-01-18T16:19:32.203Z,76.04
2023-01-18T16:24:51.980Z,76.51
2023-01-18T16:29:54.268Z,76.48
2023-01-18T16:35:13.834Z,75.93
2023-01-18T16:40:21.909Z,75.90
2023-01-18T16:45:27.382Z,76.15
2023-01-18T16:50:30.186Z,76.06
2023-01-18T16:55:32.524Z,75.81
2023-01-18T17:00:42.329Z,75.51
2023-01-18T17:05:44.625Z,76.17
2023-01-18T17:10:49.285Z,75.80
2023-01-18T17:15:52.550Z,75.29
2023-01-18T17:20:55.290Z,75.67
2023-01-18T17:25:59.153Z,75.81
2023-01-18T17:31:01.667Z,76.06
2023-01-18T17:41:09.530Z,76.01
2023-01-18T17:46:13.904Z,75.94
2023-01-18T17:51:16.427Z,75.89
2023-01-18T17:56:18.794Z,76.24
2023-01-18T18:01:21.189Z,76.54
2023-01-18T18:06:30.824Z,76.75
2023-01-18T18:11:33.739Z,77.04
2023-01-18T18:16:43.545Z,76.94
2023-01-18T18:21:46.242Z,77.20
2023-01-18T18:26:48.532Z,77.43
2023-01-18T18:31:53.516Z,77.48
2023-01-18T18:36:55.799Z,77.47
2023-01-18T18:41:58.190Z,77.69
2023-01-18T18:47:04.863Z,77.81
2023-01-18T18:52:08.088Z,77.98
2023-01-18T18:57:30.007Z,77.80
2023-01-18T19:02:32.447Z,77.86
2023-01-18T19:07:39.684Z,78.03
2023-01-18T19:12:57.375Z,78.35
2023-01-18T19:17:59.899Z,78.11
2023-01-18T19:23:02.784Z,78.29
2023-01-18T19:28:05.415Z,78.44
2023-01-18T19:33:08.651Z,78.65
2023-01-18T19:38:11.275Z,78.54
2023-01-18T19:43:16.577Z,78.66
2023-01-18T19:48:18.903Z,78.99
2023-01-18T19:53:21.508Z,79.21
2023-01-18T19:58:31.035Z,79.53
2023-01-18T20:03:34.675Z,79.50
2023-01-18T20:08:37.244Z,79.58
2023-01-18T20:13:40.388Z,80.00
2023-01-18T20:18:42.627Z,79.98
2023-01-18T20:23:45.844Z,80.31
2023-01-18T20:28:48.970Z,80.17
2023-01-18T20:33:51.665Z,80.55
2023-01-18T20:38:55.229Z,80.71
2023-01-18T20:44:00.052Z,80.57
2023-01-18T20:49:03.793Z,80.64
2023-01-18T20:54:06.270Z,80.64
2023-01-18T20:59:08.624Z,80.86
2023-01-18T21:04:10.899Z,81.36
2023-01-18T21:09:13.245Z,81.34
2023-01-18T21:14:16.639Z,81.39
2023-01-18T21:19:18.872Z,81.38
2023-01-18T21:24:21.383Z,81.64
2023-01-18T21:29:23.592Z,81.83
2023-01-18T21:34:25.921Z,81.62
2023-01-18T21:39:28.852Z,81.93
2023-01-18T21:44:49.476Z,81.90
2023-01-18T21:50:18.630Z,82.21
2023-01-18T21:55:22.059Z,82.21
2023-01-18T22:00:24.311Z,82.13
2023-01-18T22:05:26.583Z,82.10
2023-01-18T22:10:28.979Z,82.41
2023-01-18T22:15:31.235Z,82.20
2023-01-18T22:20:33.470Z,82.39
2023-01-18T22:25:35.897Z,82.27
2023-01-18T22:30:38.254Z,82.16
2023-01-18T22:35:41.042Z,82.57
2023-01-18T22:40:43.281Z,82.42
2023-01-18T22:45:54.765Z,82.99
2023-01-18T22:51:00.658Z,83.01
2023-01-18T22:56:23.232Z,82.83
2023-01-18T23:01:31.190Z,82.72
2023-01-18T23:06:45.888Z,82.47
2023-01-18T23:11:48.236Z,82.67
2023-01-18T23:17:08.917Z,82.83
2023-01-18T23:22:12.142Z,82.93
2023-01-18T23:27:14.439Z,83.08
2023-01-18T23:32:17.642Z,82.75
2023-01-18T23:37:19.865Z,83.05
2023-01-18T23:42:40.522Z,83.11
2023-01-18T23:48:01.499Z,83.22
2023-01-18T23:53:23.595Z,82.97
2023-01-18T23:58:26.344Z,83.28
